Etusivu
METAR-TAF:

METAR-TAF

Lentoasemat :

RAF

Tain, Skotlanti

Leveyspiiri: 57-49N, Pituuspiiri: 003-58W, korkeus merenpinnasta: 4 m

Tämänhetkinen sää

Tämä raportti tehtiin 37 minuuttia sitten, kello 03.20 UTC
Tuuli 6 kn lännestä/luoteesta
Lämpötila 10°C
Kosteus 93%
Ilmanpaine 995 hPa
Näkyvyys 10 km tai enemmän

METAR: EGQA 150320Z AUTO 29006KT 9999 FEW031/// BKN061/// 10/09 Q0995

Aika: 04:57 (03:57 UTC)


TAF: puuttuu

Säähavainnot ja -ennusteet yli 4000 lentoasemalta (METAR- ja TAF-raportit).

Käytössä olevat sääasemat on merkitty karttaan keltaisilla ja punaisilla pisteillä.

Aseta hiiri pisteen päälle nähdäksesi sääaseman nimen.

Klikkaa sitten nähdäksesi säähavainnot ja -ennusteet.

Kartan vaihtaminen: klikkaa mustalla rastilla varustettuja vihreitä pisteitä, niin voit zoomata sisään; viivalla varustettua vihreää pistettä, niin voit zoomata ulos tai vihreitä nuolia, niin pääset viereisille kartoille.


METAR-TAF: